createdAt,value
2023-04-16T00:00:03.571Z,101682.69
2023-04-16T00:02:39.847Z,101688.91
2023-04-16T00:05:07.892Z,101690.56
2023-04-16T00:07:35.475Z,101690.66
2023-04-16T00:10:03.091Z,101702.84
2023-04-16T00:12:30.948Z,101697.59
2023-04-16T00:14:58.662Z,101691.63
2023-04-16T00:17:26.567Z,101688.97
2023-04-16T00:19:54.107Z,101694.09
2023-04-16T00:22:21.711Z,101683.59
2023-04-16T00:24:49.326Z,101681.88
2023-04-16T00:27:16.738Z,101693.28
2023-04-16T00:29:44.139Z,101687.06
2023-04-16T00:32:11.852Z,101689.94
2023-04-16T00:34:39.322Z,101689.88
2023-04-16T00:37:06.856Z,101694.19
2023-04-16T00:39:34.524Z,101695.19
2023-04-16T00:42:02.035Z,101695.13
2023-04-16T00:44:30.520Z,101696.00
2023-04-16T00:46:59.235Z,101692.56
2023-04-16T00:49:27.683Z,101697.72
2023-04-16T00:51:57.541Z,101700.34
2023-04-16T00:54:26.189Z,101694.09
2023-04-16T00:56:54.055Z,101697.63
2023-04-16T00:59:21.918Z,101687.13
2023-04-16T01:01:49.626Z,101701.22
2023-04-16T01:04:17.343Z,101693.31
2023-04-16T01:06:44.868Z,101684.69
2023-04-16T01:09:13.099Z,101692.66
2023-04-16T01:11:40.800Z,101699.53
2023-04-16T01:14:08.439Z,101690.78
2023-04-16T01:16:36.754Z,101683.94
2023-04-16T01:19:04.173Z,101690.19
2023-04-16T01:21:32.465Z,101687.59
2023-04-16T01:24:04.642Z,101690.31
2023-04-16T01:26:32.363Z,101683.47
2023-04-16T01:29:00.522Z,101689.66
2023-04-16T01:31:28.077Z,101682.56
2023-04-16T01:34:03.760Z,101685.28
2023-04-16T01:36:31.476Z,101679.16
2023-04-16T01:38:58.910Z,101681.81
2023-04-16T01:41:27.617Z,101682.75
2023-04-16T01:43:55.072Z,101684.44
2023-04-16T01:46:29.142Z,101679.38
2023-04-16T01:48:58.013Z,101671.44
2023-04-16T01:51:25.743Z,101673.31
2023-04-16T01:53:53.197Z,101675.13
2023-04-16T01:56:20.885Z,101670.06
2023-04-16T01:58:48.484Z,101661.41
2023-04-16T02:01:18.012Z,101667.50
2023-04-16T02:03:47.742Z,101667.56
2023-04-16T02:06:16.503Z,101679.97
2023-04-16T02:08:44.174Z,101664.34
2023-04-16T02:11:11.885Z,101660.06
2023-04-16T02:13:39.621Z,101653.06
2023-04-16T02:16:07.637Z,101661.88
2023-04-16T02:18:49.247Z,101668.91
2023-04-16T02:21:20.274Z,101674.09
2023-04-16T02:23:51.632Z,101675.00
2023-04-16T02:26:23.060Z,101675.94
2023-04-16T02:28:51.927Z,101669.81
2023-04-16T02:31:24.153Z,101663.75
2023-04-16T02:33:52.296Z,101667.19
2023-04-16T02:36:19.952Z,101676.91
2023-04-16T02:38:47.481Z,101665.44
2023-04-16T02:41:15.562Z,101670.03
2023-04-16T02:43:43.041Z,101675.44
2023-04-16T02:46:10.895Z,101682.38
2023-04-16T02:48:39.102Z,101682.44
2023-04-16T02:51:06.753Z,101698.19
2023-04-16T02:53:35.199Z,101690.28
2023-04-16T02:56:02.653Z,101686.78
2023-04-16T02:58:30.673Z,101697.25
2023-04-16T03:00:58.399Z,101692.19
2023-04-16T03:03:26.417Z,101699.25
2023-04-16T03:05:54.077Z,101708.78
2023-04-16T03:08:22.189Z,101707.88
2023-04-16T03:10:49.807Z,101707.94
2023-04-16T03:13:17.839Z,101719.28
2023-04-16T03:15:50.076Z,101717.59
2023-04-16T03:18:17.963Z,101717.69
2023-04-16T03:20:45.510Z,101735.06
2023-04-16T03:23:13.295Z,101727.97
2023-04-16T03:25:40.918Z,101734.09
2023-04-16T03:28:10.482Z,101740.25
2023-04-16T03:30:39.955Z,101731.44
2023-04-16T03:33:08.647Z,101733.28
2023-04-16T03:35:36.146Z,101730.66
2023-04-16T03:38:04.157Z,101731.41
2023-04-16T03:40:32.043Z,101736.53
2023-04-16T03:43:00.616Z,101746.03
2023-04-16T03:45:29.196Z,101736.41
2023-04-16T03:47:56.754Z,101746.03
2023-04-16T03:50:26.268Z,101752.97
2023-04-16T03:52:53.838Z,101748.59
2023-04-16T03:55:21.541Z,101757.28
2023-04-16T03:57:49.202Z,101753.84
2023-04-16T04:00:17.914Z,101753.13
2023-04-16T04:02:58.609Z,101748.81
2023-04-16T04:05:26.442Z,101750.47
2023-04-16T04:07:56.061Z,101745.06
2023-04-16T04:10:23.794Z,101752.03
2023-04-16T04:12:51.615Z,101756.41
2023-04-16T04:15:19.312Z,101751.94
2023-04-16T04:17:46.889Z,101766.00
2023-04-16T04:20:14.387Z,101760.81
2023-04-16T04:22:45.085Z,101758.09
2023-04-16T04:25:13.017Z,101760.63
2023-04-16T04:27:40.716Z,101756.19
2023-04-16T04:30:09.415Z,101774.59
2023-04-16T04:32:37.007Z,101768.25
2023-04-16T04:35:04.780Z,101770.53
2023-04-16T04:37:32.370Z,101773.03
2023-04-16T04:40:02.119Z,101768.66
2023-04-16T04:42:29.994Z,101770.44
2023-04-16T04:44:57.549Z,101765.81
2023-04-16T04:47:25.183Z,101764.22
2023-04-16T04:49:53.959Z,101765.84
2023-04-16T04:52:21.459Z,101754.16
2023-04-16T04:54:52.786Z,101759.94
2023-04-16T04:57:20.667Z,101748.63
2023-04-16T04:59:51.593Z,101745.97
2023-04-16T05:02:19.958Z,101752.00
2023-04-16T05:04:47.529Z,101757.97
2023-04-16T05:07:15.009Z,101754.66
2023-04-16T05:09:42.591Z,101758.66
2023-04-16T05:12:10.044Z,101753.34
2023-04-16T05:14:37.573Z,101760.84
2023-04-16T05:17:05.393Z,101762.06
2023-04-16T05:19:33.694Z,101755.06
2023-04-16T05:22:02.316Z,101754.25
2023-04-16T05:24:30.016Z,101758.38
2023-04-16T05:26:57.909Z,101767.81
2023-04-16T05:29:25.735Z,101765.72
2023-04-16T05:31:53.392Z,101769.94
2023-04-16T05:34:20.825Z,101770.66
2023-04-16T05:36:48.596Z,101767.50
2023-04-16T05:39:18.145Z,101767.78
2023-04-16T05:41:45.762Z,101770.22
2023-04-16T05:44:13.212Z,101766.59
2023-04-16T05:46:42.077Z,101762.09
2023-04-16T05:49:11.168Z,101759.94
2023-04-16T05:51:38.854Z,101760.41
2023-04-16T05:54:06.233Z,101762.75
2023-04-16T05:56:33.707Z,101763.34
2023-04-16T05:59:01.702Z,101761.31
2023-04-16T06:01:29.310Z,101764.97
2023-04-16T06:03:57.017Z,101773.41
2023-04-16T06:06:24.696Z,101770.56
2023-04-16T06:08:52.155Z,101766.34
2023-04-16T06:11:19.807Z,101764.50
2023-04-16T06:13:47.209Z,101763.47
2023-04-16T06:16:14.689Z,101764.03
2023-04-16T06:18:42.458Z,101757.75
2023-04-16T06:21:10.413Z,101760.97
2023-04-16T06:23:37.896Z,101760.69
2023-04-16T06:26:05.841Z,101754.72
2023-04-16T06:28:33.349Z,101757.81
2023-04-16T06:31:01.202Z,101756.16
2023-04-16T06:33:28.807Z,101776.31
2023-04-16T06:35:56.695Z,101780.56
2023-04-16T06:38:24.166Z,101770.72
2023-04-16T06:40:51.937Z,101769.22
2023-04-16T06:43:19.887Z,101770.31
2023-04-16T06:45:47.335Z,101762.56
2023-04-16T06:48:15.093Z,101764.19
2023-04-16T06:50:42.532Z,101765.84
2023-04-16T06:53:09.964Z,101767.56
2023-04-16T06:55:37.457Z,101770.75
2023-04-16T06:58:04.979Z,101765.06
2023-04-16T07:00:32.759Z,101772.53
2023-04-16T07:03:01.746Z,101764.19
2023-04-16T07:05:29.846Z,101771.09
2023-04-16T07:07:57.797Z,101771.41
2023-04-16T07:10:25.628Z,101766.59
2023-04-16T07:12:53.288Z,101774.25
2023-04-16T07:15:20.774Z,101770.78
2023-04-16T07:17:48.281Z,101762.66
2023-04-16T07:20:16.315Z,101773.34
2023-04-16T07:22:43.960Z,101767.03
2023-04-16T07:25:11.369Z,101763.56
2023-04-16T07:27:38.945Z,101766.72
2023-04-16T07:30:08.048Z,101761.97
2023-04-16T07:32:35.923Z,101755.22
2023-04-16T07:35:03.990Z,101756.34
2023-04-16T07:37:31.478Z,101762.59
2023-04-16T07:40:00.674Z,101759.16
2023-04-16T07:42:28.468Z,101758.09
2023-04-16T07:44:56.082Z,101759.94
2023-04-16T07:47:26.947Z,101751.44
2023-04-16T07:49:55.063Z,101745.00
2023-04-16T07:52:22.582Z,101743.03
2023-04-16T07:54:51.746Z,101739.94
2023-04-16T07:57:19.372Z,101730.22
2023-04-16T07:59:46.921Z,101734.81
2023-04-16T08:02:17.206Z,101734.22
2023-04-16T08:04:45.217Z,101730.22
2023-04-16T08:07:13.057Z,101732.19
2023-04-16T08:09:52.113Z,101721.81
2023-04-16T08:12:21.048Z,101725.66
2023-04-16T08:14:48.836Z,101721.84
2023-04-16T08:17:16.639Z,101714.97
2023-04-16T08:19:47.732Z,101714.41
2023-04-16T08:22:15.446Z,101713.97
2023-04-16T08:24:43.052Z,101708.19
2023-04-16T08:27:19.273Z,101714.13
2023-04-16T08:29:48.542Z,101707.19
2023-04-16T08:32:16.087Z,101710.59
2023-04-16T08:34:43.690Z,101713.25
2023-04-16T08:37:11.182Z,101711.31
2023-04-16T08:39:38.834Z,101714.47
2023-04-16T08:42:19.025Z,101711.19
2023-04-16T08:44:49.610Z,101709.81
2023-04-16T08:47:17.740Z,101712.66
2023-04-16T08:49:48.746Z,101704.34
2023-04-16T08:52:22.332Z,101696.88
2023-04-16T08:54:57.390Z,101702.59
2023-04-16T08:57:30.812Z,101705.75
2023-04-16T08:59:58.624Z,101697.88
2023-04-16T09:02:27.233Z,101693.13
2023-04-16T09:04:56.535Z,101691.91
2023-04-16T09:07:25.778Z,101694.44
2023-04-16T09:09:53.944Z,101693.44
2023-04-16T09:12:24.266Z,101701.16
2023-04-16T09:14:52.244Z,101693.72
2023-04-16T09:17:19.904Z,101692.25
2023-04-16T09:19:47.370Z,101690.72
2023-04-16T09:22:14.822Z,101695.56
2023-04-16T09:24:42.341Z,101690.91
2023-04-16T09:27:09.891Z,101686.84
2023-04-16T09:29:40.502Z,101686.69
2023-04-16T09:32:10.277Z,101683.31
2023-04-16T09:34:58.545Z,101684.47
2023-04-16T09:37:29.868Z,101686.34
2023-04-16T09:40:02.513Z,101682.56
2023-04-16T09:42:36.992Z,101688.00
2023-04-16T09:45:06.132Z,101676.31
2023-04-16T09:47:41.631Z,101679.13
2023-04-16T09:50:12.405Z,101685.88
2023-04-16T09:52:43.232Z,101689.22
2023-04-16T09:55:10.765Z,101686.88
2023-04-16T09:57:38.970Z,101682.97
2023-04-16T10:00:09.447Z,101677.69
2023-04-16T10:02:41.894Z,101684.38
2023-04-16T10:05:09.902Z,101687.34
2023-04-16T10:07:37.975Z,101689.31
2023-04-16T10:10:06.189Z,101686.97
2023-04-16T10:12:34.113Z,101688.84
2023-04-16T10:15:01.911Z,101691.41
2023-04-16T10:17:31.633Z,101688.66
2023-04-16T10:20:46.380Z,101688.97
2023-04-16T10:23:14.391Z,101682.69
2023-04-16T10:25:43.185Z,101691.44
2023-04-16T10:28:12.854Z,101674.88
2023-04-16T10:30:42.436Z,101683.44
2023-04-16T10:33:10.249Z,101673.66
2023-04-16T10:35:40.923Z,101682.56
2023-04-16T10:38:27.912Z,101680.59
2023-04-16T10:41:06.304Z,101678.38
2023-04-16T10:43:40.622Z,101680.09
2023-04-16T10:46:31.262Z,101684.44
2023-04-16T10:49:13.646Z,101677.50
2023-04-16T10:51:43.440Z,101671.66
2023-04-16T10:54:16.749Z,101677.66
2023-04-16T10:56:45.945Z,101669.09
2023-04-16T10:59:14.004Z,101666.31
2023-04-16T11:01:44.387Z,101662.47
2023-04-16T11:04:21.451Z,101657.81
2023-04-16T11:07:15.625Z,101664.44
2023-04-16T11:09:59.382Z,101666.63
2023-04-16T11:12:34.475Z,101663.91
2023-04-16T11:15:13.830Z,101665.63
2023-04-16T11:17:43.611Z,101655.84
2023-04-16T11:20:18.961Z,101657.84
2023-04-16T11:22:49.308Z,101656.75
2023-04-16T11:25:34.984Z,101651.03
2023-04-16T11:28:02.816Z,101648.22
2023-04-16T11:30:33.931Z,101643.94
2023-04-16T11:33:11.218Z,101630.56
2023-04-16T11:35:39.930Z,101640.81
2023-04-16T11:38:07.756Z,101634.63
2023-04-16T11:40:36.458Z,101635.13
2023-04-16T11:43:14.019Z,101625.22
2023-04-16T11:45:59.921Z,101625.13
2023-04-16T11:48:52.872Z,101621.97
2023-04-16T11:51:21.850Z,101620.56
2023-04-16T11:53:53.472Z,101627.81
2023-04-16T11:56:29.452Z,101613.50
2023-04-16T11:59:14.521Z,101623.97
2023-04-16T12:01:47.563Z,101619.00
2023-04-16T12:04:16.745Z,101618.31
2023-04-16T12:07:07.138Z,101612.19
2023-04-16T12:09:37.913Z,101619.78
2023-04-16T12:12:26.300Z,101613.41
2023-04-16T12:14:54.833Z,101605.22
2023-04-16T12:17:22.442Z,101606.47
2023-04-16T12:19:53.231Z,101607.31
2023-04-16T12:22:36.810Z,101600.94
2023-04-16T12:25:07.154Z,101598.16
2023-04-16T12:27:53.736Z,101602.75
2023-04-16T12:30:23.539Z,101600.34
2023-04-16T12:33:10.731Z,101603.72
2023-04-16T12:35:38.740Z,101596.44
2023-04-16T12:38:06.426Z,101604.75
2023-04-16T12:40:34.724Z,101599.59
2023-04-16T12:43:02.988Z,101586.56
2023-04-16T12:45:30.939Z,101596.66
2023-04-16T12:47:59.521Z,101593.41
2023-04-16T12:50:28.692Z,101595.13
2023-04-16T12:52:56.883Z,101597.88
2023-04-16T12:55:24.588Z,101592.91
2023-04-16T12:57:55.028Z,101593.97
2023-04-16T13:00:22.826Z,101593.28
2023-04-16T13:02:50.551Z,101590.94
2023-04-16T13:05:19.360Z,101589.78
2023-04-16T13:07:48.497Z,101586.38
2023-04-16T13:10:16.831Z,101588.19
2023-04-16T13:12:46.691Z,101584.94
2023-04-16T13:15:14.679Z,101589.31
2023-04-16T13:17:42.184Z,101582.47
2023-04-16T13:20:10.413Z,101585.03
2023-04-16T13:22:38.085Z,101578.53
2023-04-16T13:25:06.193Z,101579.88
2023-04-16T13:27:34.091Z,101579.97
2023-04-16T13:30:01.719Z,101578.34
2023-04-16T13:32:29.513Z,101579.47
2023-04-16T13:34:57.248Z,101571.09
2023-04-16T13:37:24.801Z,101572.22
2023-04-16T13:39:52.296Z,101580.56
2023-04-16T13:42:19.783Z,101571.25
2023-04-16T13:44:49.390Z,101575.25
2023-04-16T13:47:17.129Z,101568.03
2023-04-16T13:49:44.587Z,101571.19
2023-04-16T13:52:12.078Z,101567.03
2023-04-16T13:54:40.575Z,101574.06
2023-04-16T13:57:19.924Z,101578.75
2023-04-16T13:59:47.614Z,101562.38
2023-04-16T14:02:15.300Z,101572.28
2023-04-16T14:04:42.845Z,101572.84
2023-04-16T14:07:10.623Z,101570.00
2023-04-16T14:09:39.233Z,101570.94
2023-04-16T14:12:06.977Z,101565.31
2023-04-16T14:14:35.120Z,101563.81
2023-04-16T14:17:03.424Z,101566.09
2023-04-16T14:19:31.677Z,101559.59
2023-04-16T14:21:59.214Z,101559.03
2023-04-16T14:24:29.708Z,101567.50
2023-04-16T14:26:57.277Z,101570.16
2023-04-16T14:29:24.826Z,101562.16
2023-04-16T14:31:52.711Z,101564.91
2023-04-16T14:34:20.424Z,101562.97
2023-04-16T14:36:49.808Z,101560.78
2023-04-16T14:39:17.591Z,101562.75
2023-04-16T14:41:45.308Z,101564.97
2023-04-16T14:44:12.801Z,101565.28
2023-04-16T14:46:41.107Z,101561.63
2023-04-16T14:49:11.983Z,101566.00
2023-04-16T14:51:40.752Z,101559.31
2023-04-16T14:54:08.235Z,101565.00
2023-04-16T14:56:35.780Z,101567.75
2023-04-16T14:59:03.303Z,101568.03
2023-04-16T15:01:32.735Z,101562.59
2023-04-16T15:04:02.100Z,101566.47
2023-04-16T15:06:29.930Z,101566.34
2023-04-16T15:08:58.044Z,101562.53
2023-04-16T15:11:25.787Z,101577.66
2023-04-16T15:13:53.248Z,101569.47
2023-04-16T15:16:21.179Z,101562.09
2023-04-16T15:18:50.182Z,101575.91
2023-04-16T15:21:17.800Z,101563.75
2023-04-16T15:23:45.942Z,101574.56
2023-04-16T15:26:13.447Z,101574.13
2023-04-16T15:28:42.328Z,101580.91
2023-04-16T15:31:10.165Z,101570.88
2023-04-16T15:33:37.821Z,101582.56
2023-04-16T15:36:05.899Z,101580.75
2023-04-16T15:38:33.656Z,101576.34
2023-04-16T15:41:01.231Z,101588.88
2023-04-16T15:43:29.903Z,101585.41
2023-04-16T15:45:57.537Z,101584.03
2023-04-16T15:48:25.063Z,101588.03
2023-04-16T15:50:53.851Z,101585.72
2023-04-16T15:53:21.728Z,101594.28
2023-04-16T15:55:53.795Z,101589.50
2023-04-16T15:58:21.539Z,101603.66
2023-04-16T16:00:50.756Z,101601.31
2023-04-16T16:03:19.176Z,101604.28
2023-04-16T16:05:48.074Z,101601.78
2023-04-16T16:08:16.861Z,101604.69
2023-04-16T16:10:44.535Z,101602.19
2023-04-16T16:13:14.138Z,101601.78
2023-04-16T16:15:42.305Z,101606.50
2023-04-16T16:18:10.099Z,101603.16
2023-04-16T16:20:37.727Z,101601.59
2023-04-16T16:23:07.224Z,101601.91
2023-04-16T16:25:34.867Z,101606.44
2023-04-16T16:28:06.724Z,101608.44
2023-04-16T16:30:34.412Z,101609.06
2023-04-16T16:33:01.887Z,101615.56
2023-04-16T16:35:29.560Z,101612.94
2023-04-16T16:37:57.377Z,101621.28
2023-04-16T16:40:25.330Z,101615.28
2023-04-16T16:42:53.630Z,101622.47
2023-04-16T16:45:21.253Z,101615.78
2023-04-16T16:47:49.129Z,101622.19
2023-04-16T16:50:16.838Z,101628.63
2023-04-16T16:52:44.826Z,101626.91
2023-04-16T16:55:12.510Z,101623.53
2023-04-16T16:57:40.257Z,101627.19
2023-04-16T17:00:11.456Z,101628.25
2023-04-16T17:02:40.333Z,101629.38
2023-04-16T17:05:08.308Z,101627.78
2023-04-16T17:07:36.441Z,101636.94
2023-04-16T17:10:11.186Z,101631.91
2023-04-16T17:12:39.850Z,101632.00
2023-04-16T17:15:08.142Z,101637.66
2023-04-16T17:17:36.941Z,101637.66
2023-04-16T17:20:10.010Z,101642.94
2023-04-16T17:22:38.822Z,101646.94
2023-04-16T17:25:10.233Z,101648.88
2023-04-16T17:27:37.929Z,101641.97
2023-04-16T17:30:06.677Z,101645.91
2023-04-16T17:32:34.535Z,101645.91
2023-04-16T17:35:04.342Z,101652.19
2023-04-16T17:37:32.211Z,101648.00
2023-04-16T17:39:59.713Z,101650.75
2023-04-16T17:42:27.192Z,101653.56
2023-04-16T17:44:54.731Z,101656.13
2023-04-16T17:47:22.615Z,101654.88
2023-04-16T17:49:54.029Z,101656.53
2023-04-16T17:52:22.302Z,101651.56
2023-04-16T17:54:49.847Z,101654.22
2023-04-16T17:57:17.420Z,101658.91
2023-04-16T17:59:44.887Z,101658.00
2023-04-16T18:02:12.409Z,101648.50
2023-04-16T18:04:39.970Z,101651.22
2023-04-16T18:07:07.512Z,101650.41
2023-04-16T18:09:35.779Z,101645.41
2023-04-16T18:12:03.573Z,101649.94
2023-04-16T18:14:34.581Z,101647.22
2023-04-16T18:17:05.585Z,101655.50
2023-04-16T18:19:35.559Z,101660.19
2023-04-16T18:22:03.252Z,101652.31
2023-04-16T18:24:31.176Z,101656.00
2023-04-16T18:26:58.869Z,101659.72
2023-04-16T18:29:26.480Z,101651.78
2023-04-16T18:31:55.651Z,101655.34
2023-04-16T18:34:25.464Z,101655.75
2023-04-16T18:36:53.061Z,101655.91
2023-04-16T18:39:20.638Z,101656.06
2023-04-16T18:41:48.355Z,101652.75
2023-04-16T18:44:17.212Z,101660.00
2023-04-16T18:46:44.711Z,101660.19
2023-04-16T18:49:12.660Z,101657.47
2023-04-16T18:51:42.000Z,101656.75
2023-04-16T18:54:09.558Z,101655.75
2023-04-16T18:56:37.251Z,101653.19
2023-04-16T18:59:04.652Z,101653.06
2023-04-16T19:01:32.216Z,101657.66
2023-04-16T19:03:59.795Z,101654.28
2023-04-16T19:06:29.243Z,101653.13
2023-04-16T19:08:56.776Z,101659.47
2023-04-16T19:11:24.340Z,101645.41
2023-04-16T19:13:51.763Z,101659.56
2023-04-16T19:16:19.258Z,101661.25
2023-04-16T19:18:46.956Z,101655.44
2023-04-16T19:21:14.368Z,101649.50
2023-04-16T19:23:41.929Z,101653.84
2023-04-16T19:26:09.381Z,101666.38
2023-04-16T19:28:38.811Z,101651.50
2023-04-16T19:31:06.642Z,101659.44
2023-04-16T19:33:34.920Z,101656.84
2023-04-16T19:36:02.775Z,101665.19
2023-04-16T19:38:32.835Z,101664.56
2023-04-16T19:41:00.471Z,101669.19
2023-04-16T19:43:30.713Z,101654.28
2023-04-16T19:45:58.812Z,101673.72
2023-04-16T19:48:30.432Z,101665.97
2023-04-16T19:51:03.180Z,101665.31
2023-04-16T19:53:30.958Z,101665.31
2023-04-16T19:55:58.494Z,101673.19
2023-04-16T19:58:26.078Z,101673.28
2023-04-16T20:00:53.632Z,101668.97
2023-04-16T20:03:21.256Z,101669.91
2023-04-16T20:05:52.063Z,101678.56
2023-04-16T20:08:19.688Z,101676.03
2023-04-16T20:10:47.280Z,101677.03
2023-04-16T20:13:17.975Z,101668.31
2023-04-16T20:15:47.233Z,101672.75
2023-04-16T20:18:14.751Z,101674.81
2023-04-16T20:20:42.327Z,101680.16
2023-04-16T20:23:09.920Z,101677.53
2023-04-16T20:25:43.984Z,101678.38
2023-04-16T20:28:12.544Z,101674.22
2023-04-16T20:30:40.232Z,101681.22
2023-04-16T20:33:09.213Z,101681.03
2023-04-16T20:35:36.859Z,101680.28
2023-04-16T20:38:04.434Z,101680.38
2023-04-16T20:40:32.610Z,101684.91
2023-04-16T20:43:00.340Z,101686.88
2023-04-16T20:45:41.151Z,101691.38
2023-04-16T20:48:08.961Z,101692.28
2023-04-16T20:50:36.981Z,101689.84
2023-04-16T20:53:04.521Z,101696.91
2023-04-16T20:55:32.606Z,101696.19
2023-04-16T20:58:00.017Z,101687.47
2023-04-16T21:00:28.412Z,101688.53
2023-04-16T21:02:56.139Z,101689.28
2023-04-16T21:05:23.970Z,101685.03
2023-04-16T21:07:53.443Z,101688.53
2023-04-16T21:10:22.823Z,101682.78
2023-04-16T21:12:50.335Z,101677.78
2023-04-16T21:15:17.816Z,101670.03
2023-04-16T21:17:45.315Z,101666.66
2023-04-16T21:20:14.116Z,101666.59
2023-04-16T21:22:41.782Z,101662.34
2023-04-16T21:25:09.637Z,101663.34
2023-04-16T21:27:37.464Z,101659.97
2023-04-16T21:30:05.358Z,101656.41
2023-04-16T21:32:33.087Z,101653.00
2023-04-16T21:35:00.951Z,101648.75
2023-04-16T21:37:28.399Z,101648.75
2023-04-16T21:39:56.115Z,101650.47
2023-04-16T21:42:23.731Z,101654.00
2023-04-16T21:44:51.309Z,101646.34
2023-04-16T21:47:18.829Z,101647.41
2023-04-16T21:49:46.452Z,101642.31
2023-04-16T21:52:19.983Z,101631.94
2023-04-16T21:54:47.548Z,101637.41
2023-04-16T21:57:15.005Z,101633.09
2023-04-16T21:59:42.589Z,101630.56
2023-04-16T22:02:10.128Z,101634.28
2023-04-16T22:04:38.580Z,101639.66
2023-04-16T22:07:08.881Z,101640.69
2023-04-16T22:09:41.654Z,101633.66
2023-04-16T22:12:12.858Z,101636.28
2023-04-16T22:14:46.160Z,101637.31
2023-04-16T22:17:15.124Z,101638.22
2023-04-16T22:19:44.587Z,101631.41
2023-04-16T22:22:12.531Z,101631.63
2023-04-16T22:24:39.959Z,101626.38
2023-04-16T22:27:07.531Z,101635.34
2023-04-16T22:29:35.024Z,101632.72
2023-04-16T22:32:02.534Z,101628.53
2023-04-16T22:34:30.225Z,101629.44
2023-04-16T22:36:58.032Z,101630.47
2023-04-16T22:39:25.646Z,101624.34
2023-04-16T22:41:53.136Z,101621.88
2023-04-16T22:44:20.648Z,101621.78
2023-04-16T22:46:48.362Z,101616.25
2023-04-16T22:49:15.996Z,101616.44
2023-04-16T22:51:43.477Z,101611.25
2023-04-16T22:54:13.266Z,101610.53
2023-04-16T22:56:41.626Z,101609.03
2023-04-16T22:59:09.324Z,101597.66
2023-04-16T23:01:37.211Z,101601.91
2023-04-16T23:04:04.870Z,101602.00
2023-04-16T23:06:33.028Z,101594.22
2023-04-16T23:09:00.628Z,101600.56
2023-04-16T23:11:28.023Z,101605.06
2023-04-16T23:13:55.842Z,101591.09
2023-04-16T23:16:23.441Z,101600.00
2023-04-16T23:18:51.001Z,101597.31
2023-04-16T23:21:18.918Z,101594.75
2023-04-16T23:23:46.555Z,101601.06
2023-04-16T23:26:14.097Z,101596.88
2023-04-16T23:28:41.579Z,101601.44
2023-04-16T23:31:09.147Z,101599.56
2023-04-16T23:33:36.955Z,101599.66
2023-04-16T23:36:05.081Z,101596.56
2023-04-16T23:38:32.765Z,101600.19
2023-04-16T23:41:00.439Z,101599.47
2023-04-16T23:43:28.256Z,101603.00
2023-04-16T23:45:55.869Z,101602.19
2023-04-16T23:48:23.645Z,101604.03
2023-04-16T23:50:51.064Z,101604.22
2023-04-16T23:53:18.608Z,101610.38
2023-04-16T23:55:46.124Z,101612.22
2023-04-16T23:58:13.572Z,101609.50
